Key West, FL

8:23 PM EDT on July 30, 2016 (GMT -0400)
Big Coppitt Key Gulfside | | Change Station

Elev 31 ft 24.60 °N, 81.67 °W | Updated 14 minutes ago

Mostly Cloudy
Mostly Cloudy
85.1 °F
Feels Like 91 °F
N
2.7
Wind Variable Wind from ESE

Today
High -- | Low -- °F
--% Chance of Precip.
Yesterday
High -- | Low -- °F
Precip. -- in
Pressure 30.04 in
Visibility 10.0 miles
Clouds Few 2000 ft
Scattered Clouds 7500 ft
Mostly Cloudy 20000 ft
Heat Index 91 °F
Dew Point 72 °F
Humidity 66%
Rainfall 0.18 in
Snow Depth Not available.
6:54 AM 8:11 PM
Waning Crescent, 10% visible
METAR KEYW 302353Z 08006KT 10SM FEW020 SCT075 BKN200 30/24 A3004 RMK AO2 SLP172 60000 T03000239 10322 20300 53012
Pressure 30.04 in
Visibility 10.0 miles
Clouds Few 2000 ft
Scattered Clouds 7500 ft
Mostly Cloudy 20000 ft
Heat Index 91 °F
Dew Point 72 °F
Humidity 66%
Rainfall 0.18 in
Snow Depth Not available.
6:54 AM 8:11 PM
Waning Crescent, 10% visible
METAR KEYW 302353Z 08006KT 10SM FEW020 SCT075 BKN200 30/24 A3004 RMK AO2 SLP172 60000 T03000239 10322 20300 53012

10-Day Weather Forecast

Almanac

Astronomy

Jul. 30, 2016 Rise Set
Actual Time
Civil Twilight
Nautical Twilight
Astronomical Twilight
Moon
Length of Visible Light
Length of Day
Tomorrow will be .
, % of the Moon is Illuminated

Today's Extremes

State Highs State Lows

Community

WunderPhotos

Upload Photos

1,928,682 photos uploaded!

WunderBlog® & News

Nearby

Air Quality

  Air Quality AQ Index Pollutant
Not available.

Snow Depth

Station Depth Elevation

Earthquake Activity

City Distance Mag. Time & Date
Minimum magnitude displayed is 2.5.

Coastal Water Temperatures

Place Temperature

Stations

Nearby Weather Stations

Station Location Temp. Windchill Dew Point Humidity Wind Precip. Elev Updated Type
                   

Watches & Warnings

There are currently no watches in effect.